Terminal Aerodrome Forecast
Issued by NWS Mt. Holly, NJ

Home | Current Version | Previous Version | Text Only | Print | Product List | Glossary On
Versions: 1 2 3 4 5 6 7 8 9 10 11 12
000
FTUS41 KPHI 252350
TAFACY
TAF
KACY 252350Z 2600/2624 19007KT P6SM FEW040 BKN070
     FM261400 26008KT P6SM FEW025
     FM261700 29011KT P6SM BKN035=

USA.gov is the U.S. government's official web portal to all federal, state and local government web resources and services.